sensor_id;sensor_type;location;lat;lon;timestamp;temperature;humidity
57636;DHT22;43465;50.728;4.160;2023-04-25T00:02:02;9.70;99.90
57636;DHT22;43465;50.728;4.160;2023-04-25T00:04:28;9.70;99.90
57636;DHT22;43465;50.728;4.160;2023-04-25T00:06:55;9.80;99.90
57636;DHT22;43465;50.728;4.160;2023-04-25T00:09:24;9.90;99.90
57636;DHT22;43465;50.728;4.160;2023-04-25T00:11:49;9.80;99.90
57636;DHT22;43465;50.728;4.160;2023-04-25T00:14:15;9.70;99.90
57636;DHT22;43465;50.728;4.160;2023-04-25T00:16:42;9.70;99.90
57636;DHT22;43465;50.728;4.160;2023-04-25T00:19:09;9.80;99.90
57636;DHT22;43465;50.728;4.160;2023-04-25T00:21:35;9.70;99.90
57636;DHT22;43465;50.728;4.160;2023-04-25T00:24:03;9.70;99.90
57636;DHT22;43465;50.728;4.160;2023-04-25T00:26:29;9.80;99.90
57636;DHT22;43465;50.728;4.160;2023-04-25T00:28:54;9.80;99.90
57636;DHT22;43465;50.728;4.160;2023-04-25T00:31:21;9.80;99.90
57636;DHT22;43465;50.728;4.160;2023-04-25T00:33:47;9.80;99.90
57636;DHT22;43465;50.728;4.160;2023-04-25T00:36:13;9.80;99.90
57636;DHT22;43465;50.728;4.160;2023-04-25T00:38:39;9.80;99.90
57636;DHT22;43465;50.728;4.160;2023-04-25T00:41:08;9.70;99.90
57636;DHT22;43465;50.728;4.160;2023-04-25T00:43:34;9.70;99.90
57636;DHT22;43465;50.728;4.160;2023-04-25T00:46:01;9.60;99.90
57636;DHT22;43465;50.728;4.160;2023-04-25T00:48:27;9.50;99.90
57636;DHT22;43465;50.728;4.160;2023-04-25T00:50:54;9.30;99.90
57636;DHT22;43465;50.728;4.160;2023-04-25T00:53:21;9.10;99.90
57636;DHT22;43465;50.728;4.160;2023-04-25T00:55:47;9.00;99.90
57636;DHT22;43465;50.728;4.160;2023-04-25T00:58:14;9.10;99.90
57636;DHT22;43465;50.728;4.160;2023-04-25T01:00:40;9.00;99.90
57636;DHT22;43465;50.728;4.160;2023-04-25T01:03:07;8.90;99.90
57636;DHT22;43465;50.728;4.160;2023-04-25T01:05:32;8.80;99.90
57636;DHT22;43465;50.728;4.160;2023-04-25T01:07:58;9.00;99.90
57636;DHT22;43465;50.728;4.160;2023-04-25T01:10:24;9.10;99.90
57636;DHT22;43465;50.728;4.160;2023-04-25T01:12:50;9.20;99.90
57636;DHT22;43465;50.728;4.160;2023-04-25T01:15:16;9.30;99.90
57636;DHT22;43465;50.728;4.160;2023-04-25T01:17:41;9.20;99.90
57636;DHT22;43465;50.728;4.160;2023-04-25T01:20:10;9.20;99.90
57636;DHT22;43465;50.728;4.160;2023-04-25T01:22:36;9.20;99.90
57636;DHT22;43465;50.728;4.160;2023-04-25T01:25:03;9.30;99.90
57636;DHT22;43465;50.728;4.160;2023-04-25T01:27:30;9.30;99.90
57636;DHT22;43465;50.728;4.160;2023-04-25T01:29:56;9.40;99.90
57636;DHT22;43465;50.728;4.160;2023-04-25T01:32:22;9.40;99.90
57636;DHT22;43465;50.728;4.160;2023-04-25T01:34:48;9.40;99.90
57636;DHT22;43465;50.728;4.160;2023-04-25T01:37:14;9.30;99.90
57636;DHT22;43465;50.728;4.160;2023-04-25T01:39:40;9.40;99.90
57636;DHT22;43465;50.728;4.160;2023-04-25T01:42:06;9.30;99.90
57636;DHT22;43465;50.728;4.160;2023-04-25T01:44:32;9.40;99.90
57636;DHT22;43465;50.728;4.160;2023-04-25T01:46:57;9.30;99.90
57636;DHT22;43465;50.728;4.160;2023-04-25T01:49:23;9.50;99.90
57636;DHT22;43465;50.728;4.160;2023-04-25T01:51:49;9.50;99.90
57636;DHT22;43465;50.728;4.160;2023-04-25T01:54:15;9.50;99.90
57636;DHT22;43465;50.728;4.160;2023-04-25T01:56:41;9.50;99.90
57636;DHT22;43465;50.728;4.160;2023-04-25T01:59:06;9.50;99.90
57636;DHT22;43465;50.728;4.160;2023-04-25T02:01:32;9.50;99.90
57636;DHT22;43465;50.728;4.160;2023-04-25T02:03:58;9.50;99.90
57636;DHT22;43465;50.728;4.160;2023-04-25T02:06:25;9.40;99.90
57636;DHT22;43465;50.728;4.160;2023-04-25T02:08:50;9.40;99.90
57636;DHT22;43465;50.728;4.160;2023-04-25T02:11:16;9.40;99.90
57636;DHT22;43465;50.728;4.160;2023-04-25T02:13:42;9.40;99.90
57636;DHT22;43465;50.728;4.160;2023-04-25T02:16:07;9.40;99.90
57636;DHT22;43465;50.728;4.160;2023-04-25T02:18:33;9.30;99.90
57636;DHT22;43465;50.728;4.160;2023-04-25T02:20:59;9.40;99.90
57636;DHT22;43465;50.728;4.160;2023-04-25T02:23:26;9.40;99.90
57636;DHT22;43465;50.728;4.160;2023-04-25T02:25:52;9.50;99.90
57636;DHT22;43465;50.728;4.160;2023-04-25T02:28:18;9.50;99.90
57636;DHT22;43465;50.728;4.160;2023-04-25T02:30:43;9.60;99.90
57636;DHT22;43465;50.728;4.160;2023-04-25T02:33:09;9.60;99.90
57636;DHT22;43465;50.728;4.160;2023-04-25T02:35:35;9.60;99.90
57636;DHT22;43465;50.728;4.160;2023-04-25T02:38:01;9.50;99.90
57636;DHT22;43465;50.728;4.160;2023-04-25T02:40:27;9.40;99.90
57636;DHT22;43465;50.728;4.160;2023-04-25T02:42:53;9.30;99.90
57636;DHT22;43465;50.728;4.160;2023-04-25T02:45:18;9.40;99.90
57636;DHT22;43465;50.728;4.160;2023-04-25T02:47:44;9.40;99.90
57636;DHT22;43465;50.728;4.160;2023-04-25T02:50:10;9.40;99.90
57636;DHT22;43465;50.728;4.160;2023-04-25T02:52:36;9.50;99.90
57636;DHT22;43465;50.728;4.160;2023-04-25T02:55:02;9.50;99.90
57636;DHT22;43465;50.728;4.160;2023-04-25T02:57:28;9.60;99.90
57636;DHT22;43465;50.728;4.160;2023-04-25T02:59:53;9.60;99.90
57636;DHT22;43465;50.728;4.160;2023-04-25T03:02:19;9.60;99.90
57636;DHT22;43465;50.728;4.160;2023-04-25T03:04:45;9.70;99.90
57636;DHT22;43465;50.728;4.160;2023-04-25T03:07:11;9.80;99.90
57636;DHT22;43465;50.728;4.160;2023-04-25T03:09:37;9.80;99.90
57636;DHT22;43465;50.728;4.160;2023-04-25T03:12:02;9.80;99.90
57636;DHT22;43465;50.728;4.160;2023-04-25T03:14:28;9.60;99.90
57636;DHT22;43465;50.728;4.160;2023-04-25T03:16:54;9.60;99.90
57636;DHT22;43465;50.728;4.160;2023-04-25T03:19:19;9.50;99.90
57636;DHT22;43465;50.728;4.160;2023-04-25T03:21:45;9.50;99.90
57636;DHT22;43465;50.728;4.160;2023-04-25T03:24:11;9.50;99.90
57636;DHT22;43465;50.728;4.160;2023-04-25T03:26:37;9.50;99.90
57636;DHT22;43465;50.728;4.160;2023-04-25T03:29:02;9.60;99.90
57636;DHT22;43465;50.728;4.160;2023-04-25T03:31:28;9.60;99.90
57636;DHT22;43465;50.728;4.160;2023-04-25T03:33:54;9.60;99.90
57636;DHT22;43465;50.728;4.160;2023-04-25T03:36:19;9.50;99.90
57636;DHT22;43465;50.728;4.160;2023-04-25T03:38:45;9.50;99.90
57636;DHT22;43465;50.728;4.160;2023-04-25T03:41:11;9.40;99.90
57636;DHT22;43465;50.728;4.160;2023-04-25T03:43:36;9.40;99.90
57636;DHT22;43465;50.728;4.160;2023-04-25T03:46:02;9.40;99.90
57636;DHT22;43465;50.728;4.160;2023-04-25T03:48:28;9.40;99.90
57636;DHT22;43465;50.728;4.160;2023-04-25T03:50:54;9.30;99.90
57636;DHT22;43465;50.728;4.160;2023-04-25T03:53:20;9.30;99.90
57636;DHT22;43465;50.728;4.160;2023-04-25T03:55:45;9.20;99.90
57636;DHT22;43465;50.728;4.160;2023-04-25T03:58:11;9.30;99.90
57636;DHT22;43465;50.728;4.160;2023-04-25T04:00:37;9.30;99.90
57636;DHT22;43465;50.728;4.160;2023-04-25T04:03:02;9.20;99.90
57636;DHT22;43465;50.728;4.160;2023-04-25T04:05:28;9.20;99.90
57636;DHT22;43465;50.728;4.160;2023-04-25T04:07:54;9.20;99.90
57636;DHT22;43465;50.728;4.160;2023-04-25T04:10:21;9.20;99.90
57636;DHT22;43465;50.728;4.160;2023-04-25T04:12:46;9.20;99.90
57636;DHT22;43465;50.728;4.160;2023-04-25T04:15:12;9.10;99.90
57636;DHT22;43465;50.728;4.160;2023-04-25T04:17:38;9.10;99.90
57636;DHT22;43465;50.728;4.160;2023-04-25T04:20:04;9.10;99.90
57636;DHT22;43465;50.728;4.160;2023-04-25T04:22:31;9.10;99.90
57636;DHT22;43465;50.728;4.160;2023-04-25T04:24:57;9.00;99.90
57636;DHT22;43465;50.728;4.160;2023-04-25T04:27:23;8.90;99.90
57636;DHT22;43465;50.728;4.160;2023-04-25T04:29:49;8.90;99.90
57636;DHT22;43465;50.728;4.160;2023-04-25T04:32:16;9.10;99.90
57636;DHT22;43465;50.728;4.160;2023-04-25T04:34:42;9.10;99.90
57636;DHT22;43465;50.728;4.160;2023-04-25T04:37:08;9.00;99.90
57636;DHT22;43465;50.728;4.160;2023-04-25T04:39:35;8.90;99.90
57636;DHT22;43465;50.728;4.160;2023-04-25T04:42:01;8.90;99.90
57636;DHT22;43465;50.728;4.160;2023-04-25T04:44:27;8.90;99.90
57636;DHT22;43465;50.728;4.160;2023-04-25T04:46:54;9.00;99.90
57636;DHT22;43465;50.728;4.160;2023-04-25T04:49:20;9.00;99.90
57636;DHT22;43465;50.728;4.160;2023-04-25T04:51:46;9.00;99.90
57636;DHT22;43465;50.728;4.160;2023-04-25T04:54:12;9.00;99.90
57636;DHT22;43465;50.728;4.160;2023-04-25T04:56:38;9.00;99.90
57636;DHT22;43465;50.728;4.160;2023-04-25T04:59:03;8.90;99.90
57636;DHT22;43465;50.728;4.160;2023-04-25T05:01:29;9.00;99.90
57636;DHT22;43465;50.728;4.160;2023-04-25T05:03:57;9.00;99.90
57636;DHT22;43465;50.728;4.160;2023-04-25T05:06:27;9.00;99.90
57636;DHT22;43465;50.728;4.160;2023-04-25T05:08:54;8.90;99.90
57636;DHT22;43465;50.728;4.160;2023-04-25T05:11:21;9.00;99.90
57636;DHT22;43465;50.728;4.160;2023-04-25T05:13:47;9.00;99.90
57636;DHT22;43465;50.728;4.160;2023-04-25T05:16:13;9.00;99.90
57636;DHT22;43465;50.728;4.160;2023-04-25T05:18:39;8.80;99.90
57636;DHT22;43465;50.728;4.160;2023-04-25T05:21:05;8.80;99.90
57636;DHT22;43465;50.728;4.160;2023-04-25T05:23:32;8.80;99.90
57636;DHT22;43465;50.728;4.160;2023-04-25T05:25:58;8.80;99.90
57636;DHT22;43465;50.728;4.160;2023-04-25T05:28:24;8.80;99.90
57636;DHT22;43465;50.728;4.160;2023-04-25T05:30:50;8.80;99.90
57636;DHT22;43465;50.728;4.160;2023-04-25T05:33:15;8.80;99.90
57636;DHT22;43465;50.728;4.160;2023-04-25T05:35:42;8.80;99.90
57636;DHT22;43465;50.728;4.160;2023-04-25T05:38:07;8.90;99.90
57636;DHT22;43465;50.728;4.160;2023-04-25T05:40:33;8.90;99.90
57636;DHT22;43465;50.728;4.160;2023-04-25T05:42:59;8.80;99.90
57636;DHT22;43465;50.728;4.160;2023-04-25T05:45:24;8.90;99.90
57636;DHT22;43465;50.728;4.160;2023-04-25T05:47:50;8.90;99.90
57636;DHT22;43465;50.728;4.160;2023-04-25T05:50:16;8.90;99.90
57636;DHT22;43465;50.728;4.160;2023-04-25T05:52:41;9.00;99.90
57636;DHT22;43465;50.728;4.160;2023-04-25T05:55:07;9.00;99.90
57636;DHT22;43465;50.728;4.160;2023-04-25T05:57:33;9.10;99.90
57636;DHT22;43465;50.728;4.160;2023-04-25T05:59:59;9.10;99.90
57636;DHT22;43465;50.728;4.160;2023-04-25T06:02:24;9.00;99.90
57636;DHT22;43465;50.728;4.160;2023-04-25T06:04:51;9.10;99.90
57636;DHT22;43465;50.728;4.160;2023-04-25T06:07:17;9.10;99.90
57636;DHT22;43465;50.728;4.160;2023-04-25T06:09:43;9.20;99.90
57636;DHT22;43465;50.728;4.160;2023-04-25T06:12:09;9.20;99.90
57636;DHT22;43465;50.728;4.160;2023-04-25T06:14:35;9.30;99.90
57636;DHT22;43465;50.728;4.160;2023-04-25T06:17:01;9.30;99.90
57636;DHT22;43465;50.728;4.160;2023-04-25T06:19:32;9.40;99.90
57636;DHT22;43465;50.728;4.160;2023-04-25T06:21:58;9.40;99.90
57636;DHT22;43465;50.728;4.160;2023-04-25T06:24:24;9.50;99.90
57636;DHT22;43465;50.728;4.160;2023-04-25T06:26:50;9.50;99.90
57636;DHT22;43465;50.728;4.160;2023-04-25T06:29:15;9.40;99.90
57636;DHT22;43465;50.728;4.160;2023-04-25T06:31:41;9.50;99.90
57636;DHT22;43465;50.728;4.160;2023-04-25T06:34:07;9.60;99.90
57636;DHT22;43465;50.728;4.160;2023-04-25T06:36:32;9.50;99.90
57636;DHT22;43465;50.728;4.160;2023-04-25T06:38:58;9.50;99.90
57636;DHT22;43465;50.728;4.160;2023-04-25T06:41:24;9.50;99.90
57636;DHT22;43465;50.728;4.160;2023-04-25T06:43:49;9.60;99.90
57636;DHT22;43465;50.728;4.160;2023-04-25T06:46:15;9.70;99.90
57636;DHT22;43465;50.728;4.160;2023-04-25T06:48:41;9.70;99.90
57636;DHT22;43465;50.728;4.160;2023-04-25T06:51:07;9.70;99.90
57636;DHT22;43465;50.728;4.160;2023-04-25T06:53:32;9.80;99.90
57636;DHT22;43465;50.728;4.160;2023-04-25T06:55:58;9.90;99.90
57636;DHT22;43465;50.728;4.160;2023-04-25T06:58:23;9.90;99.90
57636;DHT22;43465;50.728;4.160;2023-04-25T07:00:49;9.90;99.90
57636;DHT22;43465;50.728;4.160;2023-04-25T07:03:15;9.80;99.90
57636;DHT22;43465;50.728;4.160;2023-04-25T07:05:41;9.90;99.90
57636;DHT22;43465;50.728;4.160;2023-04-25T07:08:06;9.80;99.90
57636;DHT22;43465;50.728;4.160;2023-04-25T07:10:32;9.80;99.90
57636;DHT22;43465;50.728;4.160;2023-04-25T07:12:58;9.80;99.90
57636;DHT22;43465;50.728;4.160;2023-04-25T07:15:23;9.80;99.90
57636;DHT22;43465;50.728;4.160;2023-04-25T07:17:49;9.70;99.90
57636;DHT22;43465;50.728;4.160;2023-04-25T07:20:15;9.80;99.90
57636;DHT22;43465;50.728;4.160;2023-04-25T07:22:41;9.80;99.90
57636;DHT22;43465;50.728;4.160;2023-04-25T07:25:07;9.80;99.90
57636;DHT22;43465;50.728;4.160;2023-04-25T07:27:34;9.90;99.90
57636;DHT22;43465;50.728;4.160;2023-04-25T07:29:59;9.80;99.90
57636;DHT22;43465;50.728;4.160;2023-04-25T07:32:25;9.80;99.90
57636;DHT22;43465;50.728;4.160;2023-04-25T07:34:52;9.90;99.90
57636;DHT22;43465;50.728;4.160;2023-04-25T07:37:17;9.80;99.90
57636;DHT22;43465;50.728;4.160;2023-04-25T07:39:44;9.80;99.90
57636;DHT22;43465;50.728;4.160;2023-04-25T07:42:11;9.80;99.90
57636;DHT22;43465;50.728;4.160;2023-04-25T07:44:37;9.80;99.90
57636;DHT22;43465;50.728;4.160;2023-04-25T07:47:09;9.80;99.90
57636;DHT22;43465;50.728;4.160;2023-04-25T07:49:36;9.80;99.90
57636;DHT22;43465;50.728;4.160;2023-04-25T07:52:03;9.80;99.90
57636;DHT22;43465;50.728;4.160;2023-04-25T07:54:29;9.90;99.90
57636;DHT22;43465;50.728;4.160;2023-04-25T07:56:55;10.00;99.90
57636;DHT22;43465;50.728;4.160;2023-04-25T07:59:21;10.00;99.90
57636;DHT22;43465;50.728;4.160;2023-04-25T08:01:47;10.10;99.90
57636;DHT22;43465;50.728;4.160;2023-04-25T08:04:13;10.10;99.90
57636;DHT22;43465;50.728;4.160;2023-04-25T08:06:38;10.10;99.90
57636;DHT22;43465;50.728;4.160;2023-04-25T08:09:06;10.10;99.90
57636;DHT22;43465;50.728;4.160;2023-04-25T08:11:32;10.00;99.90
57636;DHT22;43465;50.728;4.160;2023-04-25T08:13:57;10.00;99.90
57636;DHT22;43465;50.728;4.160;2023-04-25T08:16:23;10.10;99.90
57636;DHT22;43465;50.728;4.160;2023-04-25T08:18:50;10.10;99.90
57636;DHT22;43465;50.728;4.160;2023-04-25T08:21:16;10.00;99.90
57636;DHT22;43465;50.728;4.160;2023-04-25T08:23:41;10.00;99.90
57636;DHT22;43465;50.728;4.160;2023-04-25T08:26:07;10.00;99.90
57636;DHT22;43465;50.728;4.160;2023-04-25T08:28:33;10.10;99.90
57636;DHT22;43465;50.728;4.160;2023-04-25T08:30:58;10.10;99.90
57636;DHT22;43465;50.728;4.160;2023-04-25T08:33:25;10.20;99.90
57636;DHT22;43465;50.728;4.160;2023-04-25T08:35:50;10.40;99.90
57636;DHT22;43465;50.728;4.160;2023-04-25T08:38:17;10.30;99.90
57636;DHT22;43465;50.728;4.160;2023-04-25T08:40:43;10.30;99.90
57636;DHT22;43465;50.728;4.160;2023-04-25T08:43:09;10.50;99.90
57636;DHT22;43465;50.728;4.160;2023-04-25T08:45:42;10.70;99.90
57636;DHT22;43465;50.728;4.160;2023-04-25T08:48:11;10.90;99.90
57636;DHT22;43465;50.728;4.160;2023-04-25T08:50:45;10.90;99.90
57636;DHT22;43465;50.728;4.160;2023-04-25T08:53:14;11.00;99.90
57636;DHT22;43465;50.728;4.160;2023-04-25T08:55:43;11.10;99.90
57636;DHT22;43465;50.728;4.160;2023-04-25T08:58:11;11.30;99.90
57636;DHT22;43465;50.728;4.160;2023-04-25T09:00:37;11.30;99.90
57636;DHT22;43465;50.728;4.160;2023-04-25T09:03:03;11.20;99.90
57636;DHT22;43465;50.728;4.160;2023-04-25T09:05:28;11.30;99.90
57636;DHT22;43465;50.728;4.160;2023-04-25T09:07:54;11.20;99.90
57636;DHT22;43465;50.728;4.160;2023-04-25T09:10:22;11.40;99.90
57636;DHT22;43465;50.728;4.160;2023-04-25T09:13:04;11.60;99.90
57636;DHT22;43465;50.728;4.160;2023-04-25T09:15:50;11.70;99.90
57636;DHT22;43465;50.728;4.160;2023-04-25T09:18:30;11.70;99.90
57636;DHT22;43465;50.728;4.160;2023-04-25T09:21:08;11.60;99.90
57636;DHT22;43465;50.728;4.160;2023-04-25T09:23:41;11.60;99.90
57636;DHT22;43465;50.728;4.160;2023-04-25T09:26:08;11.50;99.90
57636;DHT22;43465;50.728;4.160;2023-04-25T09:28:34;11.60;99.90
57636;DHT22;43465;50.728;4.160;2023-04-25T09:31:01;11.50;99.90
57636;DHT22;43465;50.728;4.160;2023-04-25T09:33:32;11.40;99.90
57636;DHT22;43465;50.728;4.160;2023-04-25T09:36:06;11.40;99.90
57636;DHT22;43465;50.728;4.160;2023-04-25T09:38:40;11.30;99.90
57636;DHT22;43465;50.728;4.160;2023-04-25T09:41:07;11.30;99.90
57636;DHT22;43465;50.728;4.160;2023-04-25T09:43:33;11.10;99.90
57636;DHT22;43465;50.728;4.160;2023-04-25T09:45:58;11.00;99.90
57636;DHT22;43465;50.728;4.160;2023-04-25T09:48:26;11.00;99.90
57636;DHT22;43465;50.728;4.160;2023-04-25T09:51:14;10.90;99.90
57636;DHT22;43465;50.728;4.160;2023-04-25T09:53:42;11.00;99.90
57636;DHT22;43465;50.728;4.160;2023-04-25T09:56:10;11.00;99.90
57636;DHT22;43465;50.728;4.160;2023-04-25T09:58:38;11.20;99.90
57636;DHT22;43465;50.728;4.160;2023-04-25T10:01:09;11.30;99.90
57636;DHT22;43465;50.728;4.160;2023-04-25T10:03:36;11.50;99.90
57636;DHT22;43465;50.728;4.160;2023-04-25T10:06:17;11.60;99.90
57636;DHT22;43465;50.728;4.160;2023-04-25T10:08:44;11.70;99.90
57636;DHT22;43465;50.728;4.160;2023-04-25T10:11:11;11.80;99.90
57636;DHT22;43465;50.728;4.160;2023-04-25T10:13:40;11.90;99.90
57636;DHT22;43465;50.728;4.160;2023-04-25T10:16:07;12.00;99.90
57636;DHT22;43465;50.728;4.160;2023-04-25T10:18:33;12.20;99.90
57636;DHT22;43465;50.728;4.160;2023-04-25T10:21:04;12.30;99.90
57636;DHT22;43465;50.728;4.160;2023-04-25T10:23:31;12.30;99.90
57636;DHT22;43465;50.728;4.160;2023-04-25T10:25:57;12.20;99.90
57636;DHT22;43465;50.728;4.160;2023-04-25T10:28:23;12.30;99.90
57636;DHT22;43465;50.728;4.160;2023-04-25T10:31:02;12.30;99.90
57636;DHT22;43465;50.728;4.160;2023-04-25T10:33:46;12.40;99.90
57636;DHT22;43465;50.728;4.160;2023-04-25T10:36:17;12.60;99.90
57636;DHT22;43465;50.728;4.160;2023-04-25T10:38:44;12.80;99.90
57636;DHT22;43465;50.728;4.160;2023-04-25T10:41:11;12.80;99.60
57636;DHT22;43465;50.728;4.160;2023-04-25T10:43:42;12.80;98.60
57636;DHT22;43465;50.728;4.160;2023-04-25T10:46:18;12.60;99.90
57636;DHT22;43465;50.728;4.160;2023-04-25T10:56:22;11.50;99.90
57636;DHT22;43465;50.728;4.160;2023-04-25T10:58:48;11.10;99.90
57636;DHT22;43465;50.728;4.160;2023-04-25T11:01:19;10.90;99.90
57636;DHT22;43465;50.728;4.160;2023-04-25T11:03:46;10.80;99.90
57636;DHT22;43465;50.728;4.160;2023-04-25T11:06:51;10.60;99.90
57636;DHT22;43465;50.728;4.160;2023-04-25T11:09:19;10.60;99.90
57636;DHT22;43465;50.728;4.160;2023-04-25T11:11:55;10.50;99.90
57636;DHT22;43465;50.728;4.160;2023-04-25T11:14:21;10.60;99.90
57636;DHT22;43465;50.728;4.160;2023-04-25T11:16:47;10.70;99.90
57636;DHT22;43465;50.728;4.160;2023-04-25T11:19:13;10.70;99.90
57636;DHT22;43465;50.728;4.160;2023-04-25T11:21:38;10.60;99.90
57636;DHT22;43465;50.728;4.160;2023-04-25T11:24:04;10.60;99.90
57636;DHT22;43465;50.728;4.160;2023-04-25T11:26:30;10.50;99.90
57636;DHT22;43465;50.728;4.160;2023-04-25T11:28:59;10.40;99.90
57636;DHT22;43465;50.728;4.160;2023-04-25T11:31:29;10.60;99.90
57636;DHT22;43465;50.728;4.160;2023-04-25T11:33:58;10.80;99.90
57636;DHT22;43465;50.728;4.160;2023-04-25T11:36:25;10.90;99.90
57636;DHT22;43465;50.728;4.160;2023-04-25T11:38:52;11.10;99.90
57636;DHT22;43465;50.728;4.160;2023-04-25T11:41:18;11.30;99.90
57636;DHT22;43465;50.728;4.160;2023-04-25T11:43:44;11.60;99.90
57636;DHT22;43465;50.728;4.160;2023-04-25T11:46:10;11.90;99.90
57636;DHT22;43465;50.728;4.160;2023-04-25T11:48:40;12.10;99.90
57636;DHT22;43465;50.728;4.160;2023-04-25T11:51:06;12.20;99.90
57636;DHT22;43465;50.728;4.160;2023-04-25T11:53:31;12.30;99.90
57636;DHT22;43465;50.728;4.160;2023-04-25T11:55:57;12.20;99.90
57636;DHT22;43465;50.728;4.160;2023-04-25T11:58:23;12.20;99.90
57636;DHT22;43465;50.728;4.160;2023-04-25T12:00:49;12.10;99.90
57636;DHT22;43465;50.728;4.160;2023-04-25T12:03:14;12.00;99.90
57636;DHT22;43465;50.728;4.160;2023-04-25T12:05:40;12.00;99.90
57636;DHT22;43465;50.728;4.160;2023-04-25T12:08:13;12.00;99.90
57636;DHT22;43465;50.728;4.160;2023-04-25T12:10:41;12.20;99.90
57636;DHT22;43465;50.728;4.160;2023-04-25T12:13:22;12.20;99.90
57636;DHT22;43465;50.728;4.160;2023-04-25T12:15:48;12.30;99.90
57636;DHT22;43465;50.728;4.160;2023-04-25T12:18:14;12.30;99.90
57636;DHT22;43465;50.728;4.160;2023-04-25T12:20:41;12.40;99.90
57636;DHT22;43465;50.728;4.160;2023-04-25T12:23:07;12.60;99.90
57636;DHT22;43465;50.728;4.160;2023-04-25T12:25:42;12.70;99.90
57636;DHT22;43465;50.728;4.160;2023-04-25T12:28:44;12.90;99.70
57636;DHT22;43465;50.728;4.160;2023-04-25T12:31:10;12.90;98.60
57636;DHT22;43465;50.728;4.160;2023-04-25T12:33:37;12.90;98.60
57636;DHT22;43465;50.728;4.160;2023-04-25T12:36:06;13.00;99.90
57636;DHT22;43465;50.728;4.160;2023-04-25T12:38:41;13.00;99.90
57636;DHT22;43465;50.728;4.160;2023-04-25T12:41:08;13.00;99.30
57636;DHT22;43465;50.728;4.160;2023-04-25T12:43:34;12.90;98.20
57636;DHT22;43465;50.728;4.160;2023-04-25T12:45:59;12.80;98.10
57636;DHT22;43465;50.728;4.160;2023-04-25T12:48:25;12.80;96.80
57636;DHT22;43465;50.728;4.160;2023-04-25T12:50:51;12.90;97.10
57636;DHT22;43465;50.728;4.160;2023-04-25T12:53:21;13.00;95.20
57636;DHT22;43465;50.728;4.160;2023-04-25T12:55:48;13.00;96.20
57636;DHT22;43465;50.728;4.160;2023-04-25T12:58:15;13.00;95.50
57636;DHT22;43465;50.728;4.160;2023-04-25T13:00:41;12.90;94.00
57636;DHT22;43465;50.728;4.160;2023-04-25T13:03:08;12.90;96.40
57636;DHT22;43465;50.728;4.160;2023-04-25T13:05:34;12.90;95.20
57636;DHT22;43465;50.728;4.160;2023-04-25T13:08:00;12.90;95.70
57636;DHT22;43465;50.728;4.160;2023-04-25T13:10:25;13.00;96.00
57636;DHT22;43465;50.728;4.160;2023-04-25T13:12:51;13.00;95.20
57636;DHT22;43465;50.728;4.160;2023-04-25T13:15:17;13.00;96.00
57636;DHT22;43465;50.728;4.160;2023-04-25T13:17:42;12.90;96.20
57636;DHT22;43465;50.728;4.160;2023-04-25T13:20:09;13.00;97.80
57636;DHT22;43465;50.728;4.160;2023-04-25T13:22:37;13.10;97.30
57636;DHT22;43465;50.728;4.160;2023-04-25T13:25:04;13.10;98.80
57636;DHT22;43465;50.728;4.160;2023-04-25T13:27:29;13.30;98.10
57636;DHT22;43465;50.728;4.160;2023-04-25T13:29:58;13.30;97.30
57636;DHT22;43465;50.728;4.160;2023-04-25T13:32:23;13.40;98.00
57636;DHT22;43465;50.728;4.160;2023-04-25T13:34:50;13.50;96.30
57636;DHT22;43465;50.728;4.160;2023-04-25T13:37:16;13.40;96.50
57636;DHT22;43465;50.728;4.160;2023-04-25T13:39:42;13.40;97.00
57636;DHT22;43465;50.728;4.160;2023-04-25T13:42:07;13.30;97.10
57636;DHT22;43465;50.728;4.160;2023-04-25T13:44:33;13.00;96.30
57636;DHT22;43465;50.728;4.160;2023-04-25T13:46:59;12.90;96.20
57636;DHT22;43465;50.728;4.160;2023-04-25T13:49:26;12.70;96.00
57636;DHT22;43465;50.728;4.160;2023-04-25T13:51:51;12.70;97.10
57636;DHT22;43465;50.728;4.160;2023-04-25T13:54:17;12.70;96.30
57636;DHT22;43465;50.728;4.160;2023-04-25T13:56:43;12.60;95.50
57636;DHT22;43465;50.728;4.160;2023-04-25T13:59:08;12.60;96.30
57636;DHT22;43465;50.728;4.160;2023-04-25T14:01:34;12.80;96.00
57636;DHT22;43465;50.728;4.160;2023-04-25T14:04:01;13.10;93.70
57636;DHT22;43465;50.728;4.160;2023-04-25T14:06:29;13.60;94.20
57636;DHT22;43465;50.728;4.160;2023-04-25T14:08:56;14.10;93.90
57636;DHT22;43465;50.728;4.160;2023-04-25T14:11:22;14.80;93.80
57636;DHT22;43465;50.728;4.160;2023-04-25T14:13:47;15.80;93.10
57636;DHT22;43465;50.728;4.160;2023-04-25T14:16:15;15.60;91.30
57636;DHT22;43465;50.728;4.160;2023-04-25T14:18:41;15.10;92.40
57636;DHT22;43465;50.728;4.160;2023-04-25T14:21:07;14.70;93.40
57636;DHT22;43465;50.728;4.160;2023-04-25T14:23:32;14.30;93.70
57636;DHT22;43465;50.728;4.160;2023-04-25T14:25:58;14.20;92.90
57636;DHT22;43465;50.728;4.160;2023-04-25T14:28:23;14.50;93.80
57636;DHT22;43465;50.728;4.160;2023-04-25T14:30:49;14.50;92.60
57636;DHT22;43465;50.728;4.160;2023-04-25T14:33:15;14.50;92.20
57636;DHT22;43465;50.728;4.160;2023-04-25T14:35:41;14.30;91.80
57636;DHT22;43465;50.728;4.160;2023-04-25T14:38:07;14.00;93.10
57636;DHT22;43465;50.728;4.160;2023-04-25T14:40:33;13.80;91.80
57636;DHT22;43465;50.728;4.160;2023-04-25T14:42:59;14.40;92.30
57636;DHT22;43465;50.728;4.160;2023-04-25T14:45:24;15.50;91.70
57636;DHT22;43465;50.728;4.160;2023-04-25T14:47:50;15.60;89.30
57636;DHT22;43465;50.728;4.160;2023-04-25T14:50:17;15.30;89.40
57636;DHT22;43465;50.728;4.160;2023-04-25T14:52:43;14.90;90.00
57636;DHT22;43465;50.728;4.160;2023-04-25T14:55:10;14.40;90.90
57636;DHT22;43465;50.728;4.160;2023-04-25T14:57:36;14.10;91.50
57636;DHT22;43465;50.728;4.160;2023-04-25T15:00:03;13.90;92.50
57636;DHT22;43465;50.728;4.160;2023-04-25T15:02:32;13.80;93.10
57636;DHT22;43465;50.728;4.160;2023-04-25T15:04:58;13.70;92.20
57636;DHT22;43465;50.728;4.160;2023-04-25T15:07:23;13.70;91.50
57636;DHT22;43465;50.728;4.160;2023-04-25T15:09:50;13.70;90.50
57636;DHT22;43465;50.728;4.160;2023-04-25T15:12:15;13.50;90.90
57636;DHT22;43465;50.728;4.160;2023-04-25T15:14:41;13.60;90.90
57636;DHT22;43465;50.728;4.160;2023-04-25T15:17:07;13.50;90.90
57636;DHT22;43465;50.728;4.160;2023-04-25T15:19:32;13.50;91.50
57636;DHT22;43465;50.728;4.160;2023-04-25T15:21:58;13.50;90.60
57636;DHT22;43465;50.728;4.160;2023-04-25T15:24:26;13.30;91.40
57636;DHT22;43465;50.728;4.160;2023-04-25T15:26:52;13.30;92.30
57636;DHT22;43465;50.728;4.160;2023-04-25T15:29:18;13.40;92.60
57636;DHT22;43465;50.728;4.160;2023-04-25T15:31:44;13.50;93.40
57636;DHT22;43465;50.728;4.160;2023-04-25T15:34:10;13.20;94.10
57636;DHT22;43465;50.728;4.160;2023-04-25T15:36:36;13.40;94.40
57636;DHT22;43465;50.728;4.160;2023-04-25T15:39:02;13.40;93.20
57636;DHT22;43465;50.728;4.160;2023-04-25T15:41:28;13.30;93.00
57636;DHT22;43465;50.728;4.160;2023-04-25T15:43:54;13.30;91.90